Time;durP1;ratioP1;P1;durP2;ratioP2;P2;SDS_P1;SDS_P2;PMS_P1;PMS_P2;Temp;Humidity;BMP_temperature;BMP_pressure;BME280_temperature;BME280_humidity;BME280_pressure;Samples;Min_cycle;Max_cycle;Signal;HPM_P1;HPM_P2
2021/10/13 00:02:23;;;;;;;3.23;2.13;;;;;;;3.11;80.55;100716.11;1730842;82;20910;-77
2021/10/13 00:04:49;;;;;;;2.13;1.93;;;;;;;3.12;80.50;100720.38;1712434;82;20898;-77
2021/10/13 00:07:15;;;;;;;4.80;2.30;;;;;;;3.13;80.50;100711.84;1732355;82;20925;-77
2021/10/13 00:09:41;;;;;;;4.03;2.70;;;;;;;3.12;80.49;100715.27;1732795;82;21059;-77
2021/10/13 00:12:07;;;;;;;3.87;2.77;;;;;;;3.12;80.46;100733.16;1732510;82;21816;-77
2021/10/13 00:14:33;;;;;;;4.22;3.02;;;;;;;3.11;80.48;100725.05;1718336;83;21068;-77
2021/10/13 00:17:06;;;;;;;4.42;3.40;;;;;;;3.11;80.50;100725.05;1731742;82;37709;-77
2021/10/13 00:19:35;;;;;;;3.75;2.90;;;;;;;3.09;80.50;100722.47;1732214;82;21321;-77
2021/10/13 00:22:01;;;;;;;3.35;2.77;;;;;;;3.08;80.45;100720.75;1731889;82;21084;-77
2021/10/13 00:24:28;;;;;;;3.53;2.67;;;;;;;3.05;80.46;100725.81;1718454;83;21707;-77
2021/10/13 00:26:54;;;;;;;;;;;;;;;3.03;80.43;100736.84;1735132;82;21049;-77
2021/10/13 00:29:21;;;;;;;4.53;2.80;;;;;;;2.96;80.45;100725.66;1683012;84;20140;-77
2021/10/13 00:31:47;;;;;;;4.00;2.83;;;;;;;2.92;80.45;100736.66;1684734;84;20918;-77
2021/10/13 00:34:15;;;;;;;4.20;2.90;;;;;;;2.89;80.42;100734.91;1689757;84;20874;-77
2021/10/13 00:36:41;;;;;;;3.92;2.55;;;;;;;2.84;80.38;100736.52;1684614;84;20933;-77
2021/10/13 00:39:08;;;;;;;3.55;2.50;;;;;;;2.80;80.34;100741.55;1685219;84;20882;-77
2021/10/13 00:41:34;;;;;;;3.65;1.67;;;;;;;2.74;80.36;100741.02;1734764;82;20912;-77
2021/10/13 00:44:00;;;;;;;6.03;2.52;;;;;;;2.69;80.36;100740.08;1734658;82;20916;-77
2021/10/13 00:46:26;;;;;;;3.80;2.80;;;;;;;2.65;80.40;100740.44;1734804;82;20888;-77
2021/10/13 00:48:52;;;;;;;2.62;2.22;;;;;;;2.64;80.44;100740.41;1699705;83;20845;-77
2021/10/13 00:51:18;;;;;;;2.55;2.35;;;;;;;2.60;80.40;100738.67;1734438;82;20873;-77
2021/10/13 00:53:51;;;;;;;3.47;2.17;;;;;;;2.56;80.37;100744.13;1734750;82;20878;-77
2021/10/13 00:56:17;;;;;;;2.62;2.42;;;;;;;2.54;80.41;100739.83;1734439;82;20900;-77
2021/10/13 00:58:43;;;;;;;2.75;2.40;;;;;;;2.51;80.44;100743.61;1714018;82;21093;-77
2021/10/13 01:01:18;;;;;;;3.10;2.70;;;;;;;2.50;80.45;100744.02;1731690;82;21039;-77
2021/10/13 01:04:21;;;;;;;3.12;2.22;;;;;;;2.46;80.42;100747.77;1735777;82;20941;-77
2021/10/13 01:07:16;;;;;;;1.90;1.62;;;;;;;2.43;80.46;100746.02;1683096;85;20915;-77
2021/10/13 01:09:54;;;;;;;3.08;2.77;;;;;;;2.38;80.38;100750.16;1729886;81;21398;-77
2021/10/13 01:12:34;;;;;;;2.87;2.30;;;;;;;2.32;80.36;100747.50;1734765;82;20859;-77
2021/10/13 01:15:09;;;;;;;3.12;2.52;;;;;;;2.26;80.34;100754.61;1733268;82;20909;-77
2021/10/13 01:18:03;;;;;;;2.72;2.37;;;;;;;2.25;80.39;100758.41;1730799;81;28045;-77
2021/10/13 01:21:03;;;;;;;3.30;2.55;;;;;;;2.22;80.39;100760.89;1661289;82;21086;-77
2021/10/13 01:24:02;;;;;;;2.02;1.82;;;;;;;2.20;80.51;100763.83;1673796;83;21576;-77
2021/10/13 01:26:45;;;;;;;3.08;2.50;;;;;;;2.19;80.51;100752.77;1731729;82;21048;-76
2021/10/13 01:29:18;;;;;;;3.00;2.42;;;;;;;2.19;80.52;100758.28;1727879;82;21501;-76
2021/10/13 01:31:54;;;;;;;2.95;2.62;;;;;;;2.22;80.61;100762.17;1734834;82;20907;-76
2021/10/13 01:34:31;;;;;;;4.72;2.35;;;;;;;2.23;80.65;100764.75;1717762;83;20980;-76
2021/10/13 01:37:02;;;;;;;4.12;2.20;;;;;;;2.28;80.73;100762.30;1734767;82;20917;-76
2021/10/13 01:39:29;;;;;;;5.03;2.30;;;;;;;2.32;80.77;100763.66;1734735;82;20906;-76
2021/10/13 01:41:59;;;;;;;3.60;2.50;;;;;;;2.38;80.78;100766.75;1733224;82;20983;-76
2021/10/13 01:44:29;;;;;;;3.75;2.90;;;;;;;2.42;80.81;100763.43;1717489;83;20914;-77
2021/10/13 01:46:55;;;;;;;5.10;3.62;;;;;;;2.47;80.82;100766.07;1734891;82;20913;-77
2021/10/13 01:49:22;;;;;;;6.20;3.92;;;;;;;2.52;80.86;100771.70;1715053;82;21023;-77
2021/10/13 01:51:55;;;;;;;3.47;3.08;;;;;;;2.57;80.89;100770.11;1716226;82;21099;-77
2021/10/13 01:54:22;;;;;;;4.65;3.60;;;;;;;2.64;80.89;100776.16;1732526;82;21043;-77
2021/10/13 01:56:49;;;;;;;4.22;3.83;;;;;;;2.69;80.91;100771.13;1721042;82;20912;-77
2021/10/13 01:59:22;;;;;;;5.17;3.65;;;;;;;2.72;80.85;100771.19;1720562;83;20906;-77
2021/10/13 02:01:51;;;;;;;4.90;3.33;;;;;;;2.77;80.87;100770.44;1720274;83;20929;-77
2021/10/13 02:04:19;;;;;;;5.85;3.35;;;;;;;2.82;80.91;100765.42;1720096;82;20941;-77
2021/10/13 02:06:48;;;;;;;4.53;3.25;;;;;;;2.86;80.89;100767.19;1734495;82;20902;-77
2021/10/13 02:09:23;;;;;;;5.40;3.05;;;;;;;2.88;80.86;100766.80;1720385;83;21773;-77
2021/10/13 02:11:50;;;;;;;6.25;3.72;;;;;;;2.91;80.87;100763.03;1720277;83;20956;-77
2021/10/13 02:14:19;;;;;;;3.83;3.50;;;;;;;2.91;80.82;100765.16;1734821;82;21429;-77
2021/10/13 02:16:50;;;;;;;4.47;3.00;;;;;;;2.90;80.72;100774.94;1734542;82;20897;-77
2021/10/13 02:19:19;;;;;;;6.10;4.20;;;;;;;2.89;80.82;100776.19;1703748;84;20876;-77
2021/10/13 02:21:51;;;;;;;5.37;4.20;;;;;;;2.89;80.78;100783.84;1733903;82;20928;-77
2021/10/13 02:24:29;;;;;;;5.08;3.72;;;;;;;2.89;80.82;100786.40;1728906;82;20907;-77
2021/10/13 02:27:09;;;;;;;7.55;4.05;;;;;;;2.88;80.84;100788.09;1734143;82;20881;-77
2021/10/13 02:29:38;;;;;;;4.60;4.20;;;;;;;2.88;80.91;100793.20;1734963;82;20941;-77
2021/10/13 02:32:06;;;;;;;9.18;4.65;;;;;;;2.89;80.95;100788.54;1715729;82;20897;-77
2021/10/13 02:34:32;;;;;;;5.58;4.22;;;;;;;2.93;80.96;100793.28;1734423;82;20928;-77
2021/10/13 02:36:59;;;;;;;5.53;4.40;;;;;;;2.94;80.99;100792.45;1734809;82;21528;-77
2021/10/13 02:39:27;;;;;;;8.38;4.80;;;;;;;2.97;81.03;100797.61;1715795;82;20910;-77
2021/10/13 02:41:53;;;;;;;4.70;3.92;;;;;;;2.99;81.05;100794.67;1734670;82;20906;-77
2021/10/13 02:44:19;;;;;;;6.03;4.95;;;;;;;3.02;81.02;100801.53;1734807;82;20934;-77
2021/10/13 02:46:52;;;;;;;7.07;4.97;;;;;;;3.04;81.10;100799.45;1734803;82;21610;-77
2021/10/13 02:49:49;;;;;;;5.55;4.60;;;;;;;3.07;81.09;100799.50;1738788;81;21189;-77
2021/10/13 02:52:46;;;;;;;5.37;4.67;;;;;;;3.10;81.08;100801.25;1730703;82;20882;-77
2021/10/13 02:55:22;;;;;;;6.22;4.60;;;;;;;3.13;81.10;100798.71;1701884;82;20905;-77
2021/10/13 02:58:08;;;;;;;6.28;5.28;;;;;;;3.15;81.14;100795.77;1734863;82;24950;-77
2021/10/13 03:00:36;;;;;;;6.42;4.78;;;;;;;3.15;80.98;100803.02;1735851;81;26275;-77
2021/10/13 03:03:15;;;;;;;6.20;5.60;;;;;;;3.16;81.12;100803.88;1731838;82;21359;-77
2021/10/13 03:05:43;;;;;;;6.05;5.28;;;;;;;3.19;81.16;100802.23;1702897;83;21060;-77
2021/10/13 03:08:13;;;;;;;8.75;5.55;;;;;;;3.25;81.20;100810.42;1720196;83;20941;-77
2021/10/13 03:10:42;;;;;;;9.18;5.20;;;;;;;3.27;81.18;100811.30;1720549;82;20913;-77
2021/10/13 03:13:11;;;;;;;6.92;5.28;;;;;;;3.28;81.19;100810.47;1722333;82;21096;-77
2021/10/13 03:15:41;;;;;;;8.10;5.40;;;;;;;3.30;81.17;100806.25;1764022;81;20971;-77
2021/10/13 03:18:11;;;;;;;7.28;5.55;;;;;;;3.31;81.17;100815.22;1741792;81;20876;-77
2021/10/13 03:20:37;;;;;;;5.95;5.35;;;;;;;3.32;81.21;100811.83;1722143;82;20903;-77
2021/10/13 03:23:03;;;;;;;7.80;5.80;;;;;;;3.34;81.22;100820.80;1680500;84;21056;-77
2021/10/13 03:25:31;;;;;;;;;;;;;;;3.34;81.19;100822.08;1716923;82;21436;-77
2021/10/13 03:27:59;;;;;;;7.00;5.37;;;;;;;3.36;81.28;100822.09;1691618;84;20137;-76
2021/10/13 03:30:26;;;;;;;7.42;6.67;;;;;;;3.35;81.19;100816.13;1677828;84;21083;-76
2021/10/13 03:32:59;;;;;;;9.60;5.80;;;;;;;3.34;81.23;100822.08;1738721;81;21000;-76
2021/10/13 03:35:31;;;;;;;8.48;5.72;;;;;;;3.35;81.25;100829.33;1739103;82;21022;-76
2021/10/13 03:38:01;;;;;;;7.72;6.05;;;;;;;3.36;81.23;100832.33;1714157;81;20899;-76
2021/10/13 03:40:30;;;;;;;8.68;5.92;;;;;;;3.36;81.30;100828.08;1737498;81;20952;-76
2021/10/13 03:42:57;;;;;;;9.35;6.30;;;;;;;3.38;81.33;100835.77;1741543;82;20925;-76
2021/10/13 03:45:24;;;;;;;6.87;6.17;;;;;;;3.39;81.34;100835.79;1718887;82;20936;-76
2021/10/13 03:47:50;;;;;;;8.48;5.42;;;;;;;3.41;81.34;100834.54;1738124;82;20901;-76
2021/10/13 03:50:19;;;;;;;6.78;6.08;;;;;;;3.42;81.32;100843.93;1728889;81;25150;-76
2021/10/13 03:52:49;;;;;;;7.30;5.95;;;;;;;3.40;81.29;100840.48;1716817;83;20936;-76
2021/10/13 03:55:17;;;;;;;9.45;6.33;;;;;;;3.39;81.29;100842.59;1692878;82;23913;-76
2021/10/13 03:57:43;;;;;;;7.35;5.62;;;;;;;3.39;81.30;100840.05;1729006;81;20925;-76
2021/10/13 04:00:13;;;;;;;7.25;6.28;;;;;;;3.37;81.37;100848.10;1741165;81;21477;-76
2021/10/13 04:02:40;;;;;;;7.80;6.17;;;;;;;3.40;81.45;100848.16;1727352;81;20937;-76
2021/10/13 04:05:10;;;;;;;7.05;5.80;;;;;;;3.40;81.37;100849.44;1728657;82;20936;-76
2021/10/13 04:07:36;;;;;;;10.58;5.85;;;;;;;3.40;81.42;100853.27;1741400;82;20874;-76
2021/10/13 04:10:06;;;;;;;9.33;6.00;;;;;;;3.41;81.42;100854.57;1741457;81;20874;-76
2021/10/13 04:12:34;;;;;;;7.70;5.92;;;;;;;3.41;81.39;100866.48;1718450;82;20939;-76
2021/10/13 04:15:00;;;;;;;9.53;5.87;;;;;;;3.42;81.44;100865.23;1728728;83;21375;-76
2021/10/13 04:17:38;;;;;;;8.28;6.03;;;;;;;3.42;81.44;100868.21;1750251;81;20917;-76
2021/10/13 04:20:08;;;;;;;11.78;6.08;;;;;;;3.44;81.50;100869.95;1738629;81;20949;-76
2021/10/13 04:22:34;;;;;;;8.80;5.75;;;;;;;3.44;81.44;100872.52;1727743;82;21035;-76
2021/10/13 04:25:00;;;;;;;7.33;5.72;;;;;;;3.44;81.53;100872.94;1732030;82;20905;-76
2021/10/13 04:27:26;;;;;;;6.27;5.63;;;;;;;3.44;81.51;100871.23;1728470;83;20976;-76
2021/10/13 04:29:53;;;;;;;6.87;5.77;;;;;;;3.46;81.59;100870.84;1733083;81;21010;-76
2021/10/13 04:32:20;;;;;;;6.53;5.92;;;;;;;3.48;81.59;100866.62;1739165;82;21055;-76
2021/10/13 04:34:48;;;;;;;6.67;6.08;;;;;;;3.52;81.55;100875.20;1735585;82;21051;-76
2021/10/13 04:37:15;;;;;;;6.22;5.58;;;;;;;3.53;81.53;100874.37;1671354;83;21052;-76
2021/10/13 04:39:41;;;;;;;6.90;5.90;;;;;;;3.54;81.59;100875.67;1738731;80;21095;-76
2021/10/13 04:42:08;;;;;;;7.03;6.25;;;;;;;3.55;81.57;100870.14;1739338;82;21028;-76
2021/10/13 04:44:34;;;;;;;7.25;6.00;;;;;;;3.59;81.66;100877.89;1742101;81;21058;-75
2021/10/13 04:47:00;;;;;;;7.57;5.60;;;;;;;3.62;81.65;100868.98;1732628;81;21412;-75
2021/10/13 04:49:26;;;;;;;6.58;5.97;;;;;;;3.64;81.58;100871.54;1735909;81;21011;-75
2021/10/13 04:51:52;;;;;;;5.83;5.33;;;;;;;3.64;81.62;100877.93;1723783;82;21132;-75
2021/10/13 04:54:19;;;;;;;8.23;5.60;;;;;;;3.65;81.60;100871.98;1755257;81;20899;-75
2021/10/13 04:56:46;;;;;;;5.70;5.20;;;;;;;3.65;81.56;100884.77;1716877;82;21574;-75
2021/10/13 04:59:12;;;;;;;6.55;5.75;;;;;;;3.64;81.57;100876.23;1740099;81;21052;-75
2021/10/13 05:01:38;;;;;;;5.90;5.30;;;;;;;3.64;81.54;100877.93;1714480;81;20882;-75
2021/10/13 05:04:05;;;;;;;;;;;;;;;3.63;81.52;100882.63;1735456;81;21106;-75
2021/10/13 05:06:31;;;;;;;5.75;4.87;;;;;;;3.58;81.57;100885.11;1710687;83;20169;-75
2021/10/13 05:08:57;;;;;;;5.70;5.12;;;;;;;3.55;81.49;100885.48;1713938;83;21037;-75
2021/10/13 05:11:29;;;;;;;5.95;5.25;;;;;;;3.54;81.53;100893.98;1732972;82;21526;-75
2021/10/13 05:13:55;;;;;;;6.23;5.63;;;;;;;3.52;81.54;100898.21;1731557;82;20963;-75
2021/10/13 05:16:21;;;;;;;6.22;5.15;;;;;;;3.49;81.53;100899.02;1727509;83;21023;-75
2021/10/13 05:18:47;;;;;;;9.30;5.83;;;;;;;3.47;81.49;100902.38;1701944;83;21059;-77
2021/10/13 05:21:13;;;;;;;6.72;5.05;;;;;;;3.44;81.49;100913.83;1713014;83;21016;-75
2021/10/13 05:23:40;;;;;;;5.62;5.08;;;;;;;3.42;81.49;100915.08;1714748;82;21480;-75
2021/10/13 05:26:05;;;;;;;6.40;5.08;;;;;;;3.40;81.50;100918.45;1737436;81;21031;-75
2021/10/13 05:28:31;;;;;;;5.10;4.60;;;;;;;3.36;81.43;100919.22;1729027;81;20912;-75
2021/10/13 05:31:07;;;;;;;5.30;4.80;;;;;;;3.32;81.49;100915.33;1733913;81;20927;-75
2021/10/13 05:33:33;;;;;;;5.65;5.03;;;;;;;3.30;81.41;100916.13;1710931;82;21066;-75
2021/10/13 05:35:59;;;;;;;5.53;5.03;;;;;;;3.26;81.41;100917.77;1736620;81;21050;-75
2021/10/13 05:38:25;;;;;;;6.47;5.25;;;;;;;3.24;81.44;100924.97;1744105;81;21451;-75
2021/10/13 05:40:52;;;;;;;8.60;5.45;;;;;;;3.21;81.44;100930.88;1735030;81;21348;-75
2021/10/13 05:43:18;;;;;;;6.40;5.20;;;;;;;3.19;81.46;100932.96;1714257;83;21018;-75
2021/10/13 05:45:49;;;;;;;6.97;5.10;;;;;;;3.17;81.42;100941.02;1712715;83;20969;-75
2021/10/13 05:48:16;;;;;;;9.30;5.67;;;;;;;3.15;81.45;100945.23;1714563;83;20953;-75
2021/10/13 05:50:42;;;;;;;11.03;6.60;;;;;;;3.12;81.40;100947.31;1711114;82;21118;-75
2021/10/13 05:53:08;;;;;;;10.60;7.28;;;;;;;3.08;81.46;100946.84;1708727;83;21423;-75
2021/10/13 05:55:34;;;;;;;13.90;8.20;;;;;;;3.08;81.48;100954.50;1739575;81;21035;-75
2021/10/13 05:58:03;;;;;;;11.95;6.35;;;;;;;3.05;81.47;100948.05;1746225;81;21126;-75
2021/10/13 06:00:29;;;;;;;12.03;7.12;;;;;;;3.04;81.48;100959.10;1741236;81;20977;-75
2021/10/13 06:03:01;;;;;;;10.13;7.33;;;;;;;3.04;81.51;100956.55;1742898;80;20995;-75
2021/10/13 06:05:31;;;;;;;11.43;7.03;;;;;;;3.04;81.49;100957.83;1738576;81;21491;-75
2021/10/13 06:07:57;;;;;;;10.15;6.95;;;;;;;3.04;81.51;100960.80;1731369;81;21095;-75
2021/10/13 06:10:23;;;;;;;14.60;8.17;;;;;;;3.05;81.58;100962.10;1733521;82;21022;-75
2021/10/13 06:12:51;;;;;;;13.40;7.40;;;;;;;3.07;81.59;100964.27;1736279;81;21574;-75
2021/10/13 06:15:19;;;;;;;9.60;6.80;;;;;;;3.10;81.64;100963.47;1718478;81;21045;-75
2021/10/13 06:17:45;;;;;;;10.00;6.78;;;;;;;3.13;81.67;100965.64;1688782;82;21105;-75
2021/10/13 06:20:12;;;;;;;15.28;7.83;;;;;;;3.14;81.65;100967.36;1738234;81;21150;-75
2021/10/13 06:22:38;;;;;;;10.58;8.30;;;;;;;3.16;81.63;100977.20;1735965;81;21040;-75
2021/10/13 06:25:06;;;;;;;18.40;8.83;;;;;;;3.19;81.70;100979.81;1739724;81;20869;-75
2021/10/13 06:27:33;;;;;;;18.55;8.78;;;;;;;3.29;81.75;100984.27;1731139;81;22048;-75
2021/10/13 06:29:59;;;;;;;13.55;8.38;;;;;;;3.50;81.96;100986.38;1745632;81;21625;-75
2021/10/13 06:32:25;;;;;;;13.93;9.37;;;;;;;3.78;82.13;100990.27;1747118;80;21626;-75
2021/10/13 06:34:51;;;;;;;13.73;8.63;;;;;;;4.07;82.09;100989.91;1739744;81;20905;-75
2021/10/13 06:37:18;;;;;;;15.80;9.95;;;;;;;4.38;82.17;100997.62;1748649;81;20998;-74
2021/10/13 06:39:44;;;;;;;16.00;11.03;;;;;;;4.72;82.23;101002.80;1742821;80;21012;-74
2021/10/13 06:42:10;;;;;;;14.93;8.50;;;;;;;5.02;82.09;101015.16;1727474;81;21568;-74
2021/10/13 06:44:36;;;;;;;11.33;6.97;;;;;;;5.30;82.00;101005.24;1739405;81;21062;-74
2021/10/13 06:47:02;;;;;;;11.97;7.15;;;;;;;5.58;81.99;101008.12;1738253;81;21413;-74
2021/10/13 06:49:28;;;;;;;8.48;6.05;;;;;;;5.91;82.13;101015.30;1743214;81;21112;-74
2021/10/13 06:51:54;;;;;;;8.10;5.83;;;;;;;6.20;82.14;101023.27;1738259;82;20935;-74
2021/10/13 06:54:22;;;;;;;6.20;4.53;;;;;;;6.42;82.15;101020.41;1751340;81;21509;-74
2021/10/13 06:56:48;;;;;;;4.97;4.00;;;;;;;6.61;81.98;101018.41;1741785;81;20912;-74
2021/10/13 06:59:14;;;;;;;4.37;3.97;;;;;;;6.75;82.00;101014.65;1745200;81;20890;-74
2021/10/13 07:01:40;;;;;;;5.17;4.20;;;;;;;6.87;82.02;101021.11;1738140;81;21724;-74
2021/10/13 07:04:06;;;;;;;4.53;4.13;;;;;;;7.15;82.24;101016.97;1744741;81;21027;-74
2021/10/13 07:06:45;;;;;;;4.90;3.67;;;;;;;7.43;82.21;101023.06;1753398;81;21643;-74
2021/10/13 07:09:11;;;;;;;5.23;4.13;;;;;;;7.51;82.03;101030.37;1713173;81;21085;-74
2021/10/13 07:11:37;;;;;;;4.83;4.20;;;;;;;7.53;81.91;101030.81;1745643;80;21389;-74
2021/10/13 07:14:06;;;;;;;3.72;3.05;;;;;;;7.51;81.91;101030.37;1747979;81;21468;-74
2021/10/13 07:16:31;;;;;;;3.92;3.25;;;;;;;7.51;81.95;101033.81;1744092;81;21511;-74
2021/10/13 07:18:57;;;;;;;4.07;3.60;;;;;;;7.53;82.00;101035.96;1740963;81;21657;-74
2021/10/13 07:21:23;;;;;;;7.17;3.87;;;;;;;7.55;82.00;101033.39;1741495;81;21381;-74
2021/10/13 07:23:49;;;;;;;3.80;3.40;;;;;;;7.55;82.01;101034.25;1741811;81;20910;-74
2021/10/13 07:26:17;;;;;;;9.53;3.77;;;;;;;7.56;82.00;101044.98;1738407;82;21404;-74
2021/10/13 07:28:43;;;;;;;3.60;3.30;;;;;;;7.60;81.99;101043.27;1741184;81;20897;-74
2021/10/13 07:31:10;;;;;;;3.70;3.40;;;;;;;7.69;82.08;101040.73;1729185;81;500510;-74
2021/10/13 07:33:36;;;;;;;;;;;;;;;7.69;82.00;101047.59;1711998;82;20953;-74
2021/10/13 07:36:02;;;;;;;3.52;3.25;;;;;;;7.70;82.08;101049.31;1675853;84;21228;-74
2021/10/13 07:38:29;;;;;;;3.80;3.50;;;;;;;7.70;82.08;101052.74;1690390;83;21115;-74
2021/10/13 07:41:04;;;;;;;5.40;4.13;;;;;;;7.67;81.96;101053.16;1718516;82;21718;-74
2021/10/13 07:43:32;;;;;;;7.37;3.25;;;;;;;7.61;81.93;101057.44;1717196;82;21092;-74
2021/10/13 07:45:58;;;;;;;3.83;3.42;;;;;;;7.52;81.85;101056.11;1717584;82;21626;-74
2021/10/13 07:48:25;;;;;;;4.33;3.70;;;;;;;7.41;81.80;101057.78;1697663;83;21536;-74
2021/10/13 07:50:52;;;;;;;5.67;3.67;;;;;;;7.33;81.86;101055.61;1694519;84;25284;-74
2021/10/13 07:53:26;;;;;;;5.45;3.83;;;;;;;7.33;81.93;101067.19;1711680;82;21576;-74
2021/10/13 07:55:52;;;;;;;4.60;4.15;;;;;;;7.54;82.07;101059.55;1712903;82;21616;-74
2021/10/13 07:58:18;;;;;;;4.05;3.75;;;;;;;7.84;82.28;101072.05;1721202;82;21072;-74
2021/10/13 08:00:47;;;;;;;6.15;4.17;;;;;;;8.06;82.29;101069.10;1713541;82;21600;-74
2021/10/13 08:03:13;;;;;;;4.13;3.73;;;;;;;8.15;82.15;101070.41;1715584;82;20937;-74
2021/10/13 08:05:40;;;;;;;5.83;3.90;;;;;;;8.14;82.00;101074.70;1693045;83;20968;-74
2021/10/13 08:08:08;;;;;;;4.30;3.90;;;;;;;8.15;82.06;101069.97;1707848;82;21539;-74
2021/10/13 08:10:34;;;;;;;4.93;4.43;;;;;;;8.20;82.05;101068.69;1719800;82;22060;-74
2021/10/13 08:13:00;;;;;;;4.47;4.07;;;;;;;8.29;82.10;101076.43;1714528;82;21718;-74
2021/10/13 08:15:27;;;;;;;6.53;4.37;;;;;;;8.30;81.93;101076.86;1691884;83;21584;-74
2021/10/13 08:17:53;;;;;;;4.65;4.25;;;;;;;8.38;82.10;101081.59;1717704;82;25194;-74
2021/10/13 08:20:19;;;;;;;4.87;4.12;;;;;;;8.51;82.10;101083.31;1695294;83;21548;-74
2021/10/13 08:22:46;;;;;;;4.50;4.10;;;;;;;8.62;82.13;101081.59;1709993;82;21028;-74
2021/10/13 08:25:12;;;;;;;4.33;3.92;;;;;;;8.71;82.02;101088.90;1697518;82;21845;-75
2021/10/13 08:27:39;;;;;;;3.90;3.60;;;;;;;8.80;82.10;101086.31;1698753;83;21508;-75
2021/10/13 08:30:08;;;;;;;4.67;4.28;;;;;;;8.87;81.96;101086.27;1677796;84;21634;-75
2021/10/13 08:32:47;;;;;;;3.90;3.55;;;;;;;8.87;81.78;101085.41;1694397;83;21060;-75
2021/10/13 08:35:13;;;;;;;4.80;3.87;;;;;;;8.82;81.72;101089.31;1690477;83;21087;-75
2021/10/13 08:37:39;;;;;;;4.53;4.13;;;;;;;8.81;81.77;101092.75;1681230;83;21118;-75
2021/10/13 08:40:08;;;;;;;4.28;3.87;;;;;;;8.80;81.78;101092.75;1679080;83;21455;-75
2021/10/13 08:42:34;;;;;;;4.45;3.98;;;;;;;8.77;81.77;101096.62;1682268;83;20995;-75
2021/10/13 08:45:00;;;;;;;6.57;4.23;;;;;;;8.73;81.78;101098.34;1672306;83;21054;-75
2021/10/13 08:47:26;;;;;;;3.92;3.62;;;;;;;8.68;81.70;101102.65;1708527;83;21370;-75
2021/10/13 08:49:53;;;;;;;4.60;4.20;;;;;;;8.60;81.68;101104.37;1681614;83;20905;-75
2021/10/13 08:52:28;;;;;;;4.58;3.62;;;;;;;8.56;81.77;101108.66;1698705;83;20975;-75
2021/10/13 08:54:55;;;;;;;4.30;3.70;;;;;;;8.56;81.86;101104.80;1674891;84;21314;-75
2021/10/13 08:57:23;;;;;;;;;;;;;;;8.57;81.83;101103.94;1705130;83;21615;-75
2021/10/13 08:59:51;;;;;;;3.30;3.00;;;;;;;8.60;81.86;101114.67;1679595;83;20130;-75
2021/10/13 09:02:40;;;;;;;4.42;3.95;;;;;;;8.57;81.65;101115.53;1683179;84;21347;-75
2021/10/13 09:05:18;;;;;;;5.55;3.58;;;;;;;8.56;81.75;101115.11;1707414;83;20954;-75
2021/10/13 09:07:56;;;;;;;3.67;3.40;;;;;;;8.60;81.75;101105.66;1683109;83;20935;-75
2021/10/13 09:10:35;;;;;;;4.95;3.90;;;;;;;8.63;81.80;101111.67;1694502;83;20947;-74
2021/10/13 09:13:16;;;;;;;5.00;4.47;;;;;;;8.68;81.81;101113.39;1708713;83;21028;-74
2021/10/13 09:15:51;;;;;;;4.22;3.83;;;;;;;8.73;81.79;101118.97;1690681;83;20929;-74
2021/10/13 09:18:23;;;;;;;5.65;3.20;;;;;;;8.77;81.75;101116.83;1693994;83;21113;-74
2021/10/13 09:20:55;;;;;;;3.37;3.08;;;;;;;8.80;81.64;101123.70;1703262;83;21037;-74
2021/10/13 09:23:30;;;;;;;5.22;3.65;;;;;;;8.82;81.56;101123.27;1705612;83;21107;-74
2021/10/13 09:26:05;;;;;;;5.90;3.15;;;;;;;8.84;81.57;101124.95;1688590;83;21457;-74
2021/10/13 09:28:33;;;;;;;3.77;3.47;;;;;;;8.89;81.58;101128.39;1682578;83;21075;-74
2021/10/13 09:31:16;;;;;;;3.65;3.35;;;;;;;8.97;81.57;101120.64;1702452;83;21853;-74
2021/10/13 09:34:04;;;;;;;3.55;2.90;;;;;;;8.94;81.29;101124.09;1683448;82;414836;-74
2021/10/13 09:36:40;;;;;;;3.50;3.15;;;;;;;9.00;81.60;101120.64;1694898;83;20978;-74
2021/10/13 09:39:19;;;;;;;3.58;3.15;;;;;;;9.09;81.58;101118.05;1688986;84;20878;-74
2021/10/13 09:42:08;;;;;;;3.35;3.00;;;;;;;9.16;81.45;101126.64;1707604;83;20957;-74
2021/10/13 09:44:42;;;;;;;3.80;3.33;;;;;;;9.20;81.35;101127.92;1709336;83;20960;-74
2021/10/13 09:47:12;;;;;;;3.70;3.12;;;;;;;9.23;81.24;101125.33;1710789;83;20905;-74
2021/10/13 09:49:45;;;;;;;3.92;3.50;;;;;;;9.27;81.24;101133.49;1722158;82;20893;-74
2021/10/13 09:52:15;;;;;;;4.25;3.37;;;;;;;9.29;81.16;101130.91;1718888;83;20976;-74
2021/10/13 09:54:45;;;;;;;4.97;3.95;;;;;;;9.32;81.13;101130.05;1712022;83;20924;-74
2021/10/13 09:57:27;;;;;;;5.08;4.12;;;;;;;9.26;80.92;101131.78;1716030;82;20909;-74
2021/10/13 10:00:13;;;;;;;4.20;3.80;;;;;;;9.20;80.97;101137.38;1704370;82;20898;-74
2021/10/13 10:02:57;;;;;;;4.00;3.40;;;;;;;9.18;80.99;101142.55;1710116;80;20908;-75
2021/10/13 10:05:33;;;;;;;4.37;3.98;;;;;;;9.20;81.04;101140.82;1710664;82;20953;-75
2021/10/13 10:08:02;;;;;;;5.10;3.55;;;;;;;9.24;81.04;101150.70;1713598;82;21358;-75
2021/10/13 10:10:30;;;;;;;5.45;3.42;;;;;;;9.27;80.98;101146.83;1712773;82;20910;-75
2021/10/13 10:13:05;;;;;;;;;;;;;;;9.26;80.89;101153.71;1713418;82;20940;-75
2021/10/13 10:15:41;;;;;;;5.28;4.03;;;;;;;9.30;80.80;101153.27;1677012;83;20097;-75
2021/10/13 10:18:32;;;;;;;4.10;3.50;;;;;;;9.40;81.09;101148.48;1671411;85;20912;-75
2021/10/13 10:21:24;;;;;;;5.72;3.83;;;;;;;9.47;80.95;101146.31;1715084;82;20914;-75
2021/10/13 10:24:00;;;;;;;4.50;4.10;;;;;;;9.43;80.74;101148.48;1629737;83;21010;-75
2021/10/13 10:26:30;;;;;;;5.62;3.65;;;;;;;9.40;80.68;101148.48;1711235;81;23482;-75
2021/10/13 10:29:12;;;;;;;4.25;3.75;;;;;;;9.38;80.75;101153.22;1719432;82;20964;-75
2021/10/13 10:31:43;;;;;;;3.40;3.08;;;;;;;9.42;80.85;101151.92;1696952;83;21332;-75
2021/10/13 10:34:13;;;;;;;4.28;3.80;;;;;;;9.46;80.81;101154.92;1715009;82;20960;-75
2021/10/13 10:36:44;;;;;;;3.42;3.12;;;;;;;9.49;80.77;101152.33;1717378;82;20940;-75
2021/10/13 10:39:14;;;;;;;4.53;3.20;;;;;;;9.56;80.82;101155.76;1677886;84;20913;-75
2021/10/13 10:41:49;;;;;;;3.40;2.83;;;;;;;9.61;80.74;101156.60;1715180;82;20945;-75
2021/10/13 10:44:40;;;;;;;3.58;2.60;;;;;;;9.66;80.70;101154.00;1718239;82;20949;-75
2021/10/13 10:47:13;;;;;;;2.75;2.50;;;;;;;9.73;80.74;101158.28;1738890;81;20941;-75
2021/10/13 10:49:57;;;;;;;3.15;2.85;;;;;;;9.79;80.65;101153.09;1736420;82;20921;-75
2021/10/13 10:52:26;;;;;;;2.67;2.47;;;;;;;9.84;80.64;101161.69;1680523;82;21060;-75
2021/10/13 10:55:07;;;;;;;3.40;2.60;;;;;;;9.92;80.61;101161.19;1692732;83;20937;-72
2021/10/13 10:57:47;;;;;;;3.50;2.55;;;;;;;9.98;80.52;101161.59;1724031;82;21044;-72
2021/10/13 11:00:31;;;;;;;2.90;2.20;;;;;;;10.02;80.41;101166.74;1717247;82;20910;-72
2021/10/13 11:03:23;;;;;;;3.50;2.70;;;;;;;10.09;80.48;101167.14;1717567;82;21043;-72
2021/10/13 11:05:49;;;;;;;2.20;2.08;;;;;;;10.18;80.43;101170.97;1713533;82;21541;-73
2021/10/13 11:08:16;;;;;;;2.40;2.20;;;;;;;10.25;80.31;101166.66;1715364;82;21550;-73
2021/10/13 11:10:43;;;;;;;2.15;1.95;;;;;;;10.26;80.21;101169.23;1721233;82;21496;-73
2021/10/13 11:13:09;;;;;;;2.67;2.10;;;;;;;10.30;80.21;101173.09;1695384;83;21173;-73
2021/10/13 11:15:38;;;;;;;3.08;2.17;;;;;;;10.30;80.06;101179.55;1714281;82;21175;-73
2021/10/13 11:18:14;;;;;;;2.60;2.33;;;;;;;10.28;80.04;101179.56;1712608;82;20964;-72
2021/10/13 11:20:40;;;;;;;3.80;2.77;;;;;;;10.22;79.94;101183.03;1723559;82;20973;-73
2021/10/13 11:23:08;;;;;;;3.70;2.40;;;;;;;10.18;79.93;101183.89;1680384;84;20970;-73
2021/10/13 11:25:35;;;;;;;4.12;2.62;;;;;;;10.11;79.89;101184.78;1690087;84;20917;-72
2021/10/13 11:28:11;;;;;;;2.90;2.60;;;;;;;10.01;79.82;101182.25;1688165;84;20936;-72
2021/10/13 11:30:46;;;;;;;2.95;2.40;;;;;;;9.91;79.83;101179.70;1715519;82;20960;-72
2021/10/13 11:33:18;;;;;;;2.62;2.27;;;;;;;9.87;79.97;101179.33;1725039;82;20889;-72
2021/10/13 11:35:48;;;;;;;3.12;2.55;;;;;;;9.86;79.94;101185.35;1694145;84;20945;-72
2021/10/13 11:38:19;;;;;;;4.90;2.77;;;;;;;9.90;80.10;101180.57;1718146;82;20936;-72
2021/10/13 11:40:46;;;;;;;5.05;2.25;;;;;;;9.97;80.06;101181.41;1717561;82;20953;-72
2021/10/13 11:43:17;;;;;;;3.05;2.30;;;;;;;10.04;80.01;101171.90;1717947;82;21504;-72
2021/10/13 11:45:50;;;;;;;2.37;2.17;;;;;;;10.09;79.90;101176.61;1718195;82;20977;-72
2021/10/13 11:48:30;;;;;;;2.75;1.98;;;;;;;10.13;79.87;101172.72;1693699;84;20937;-72
2021/10/13 11:51:00;;;;;;;1.70;1.60;;;;;;;10.15;79.80;101164.52;1712277;83;20922;-72